Emerald — V7RR6 — position and weather

sailwx.info

Track history (hours):
 
Tides and Currents Weather Stations Pressure Air Temp Water Temp Dewpoint Dewpoint Depression Visibility Wind Speed Wind Dir Waves Ship Positions

Emerald

Last reported at 2018-Jan-20 12:36 UTC. Time now 2018-Jan-21 16:19 UTC.
Position N 48°13' W 125°22'.

Length 190 m; draft 12.3 m.

Type: Cargo ship. MMSI: 538003569.

Date/timePositionNaut miles runAvg speedWind from/ knotsBaromVisibWave heightAir tempDewpointWater temp
2018-Jan-20 12:36N 48°13' W 125°22'3 7.8
2018-Jan-20 12:16N 48°15' W 125°19'2 7.4
2018-Jan-20 11:57N 48°17' W 125°17'3 7.1
2018-Jan-20 11:29N 48°20' W 125°14'4 6.7
2018-Jan-20 10:57N 48°22' W 125°11'3 7.3
2018-Jan-20 10:30N 48°25' W 125°08'4 7.4
2018-Jan-20 09:59N 48°28' W 125°04'4 7.6
2018-Jan-20 09:30N 48°31' W 125°01'3 6.9
2018-Jan-20 09:01N 48°31' W 124°55'4 7.3
2018-Jan-20 08:30N 48°31' W 124°50'4 7.5
2018-Jan-20 08:01N 48°30' W 124°44'4 7.8
2018-Jan-20 07:31N 48°29' W 124°39'4 8.3
2018-Jan-20 07:01N 48°28' W 124°33'5 9.6
2018-Jan-20 06:30N 48°26' W 124°26'510.4
2018-Jan-20 05:59N 48°24' W 124°19'612.2
2018-Jan-20 05:31N 48°21' W 124°11'713.8
2018-Jan-20 05:01N 48°19' W 124°01'713.2
2018-Jan-20 04:30N 48°17' W 123°51'712.9
2018-Jan-20 03:58N 48°16' W 123°41'1311.3
2018-Jan-20 02:49N 48°23' W 123°24'3 9.5
2018-Jan-20 02:30N 48°23' W 123°20'611.2
2018-Jan-20 02:00N 48°26' W 123°12'612.9
2018-Jan-20 01:30N 48°32' W 123°13'612.7
2018-Jan-20 01:00N 48°38' W 123°15'612.0
2018-Jan-20 00:30N 48°44' W 123°18'9 0.7
2018-Jan-19 10:51N 48°43' W 123°32'0 0.0
2018-Jan-19 10:24N 48°43' W 123°32'0 0.0
2018-Jan-19 09:57N 48°43' W 123°32'4 0.1
2018-Jan-18 00:03N 48°43' W 123°26'110.0
2018-Jan-17 23:59N 48°44' W 123°25'010.6
2018-Jan-17 23:57N 48°44' W 123°24'  
2018-Jan-12 14:58N 49°18' W 123°05'0 0.0
2018-Jan-12 14:28N 49°18' W 123°05'0 0.1
2018-Jan-12 13:58N 49°18' W 123°05'0 0.1
2018-Jan-12 13:28N 49°18' W 123°05'0 0.2
2018-Jan-12 12:58N 49°18' W 123°05'0 0.0
2018-Jan-12 12:28N 49°18' W 123°05'0 0.0
2018-Jan-12 11:58N 49°18' W 123°05'0 0.0
2018-Jan-12 11:28N 49°18' W 123°05'0 0.1
2018-Jan-12 10:58N 49°18' W 123°05'0 0.0
2018-Jan-12 10:28N 49°18' W 123°05'0 0.0
2018-Jan-12 09:58N 49°18' W 123°05'0 0.1
2018-Jan-12 09:28N 49°18' W 123°05'0 0.1
2018-Jan-12 08:58N 49°18' W 123°05'0 0.1
2018-Jan-12 08:28N 49°18' W 123°05'0 0.1
2018-Jan-12 07:58N 49°18' W 123°05'0 0.0
2018-Jan-12 07:28N 49°18' W 123°05'0 0.1
2018-Jan-12 06:58N 49°18' W 123°05'0 0.2
2018-Jan-12 06:28N 49°18' W 123°05'0 0.2
2018-Jan-12 05:59N 49°18' W 123°05'2 3.3
2018-Jan-12 05:31N 49°18' W 123°07'611.4
2018-Jan-12 05:00N 49°18' W 123°16'713.8
2018-Jan-12 04:29N 49°11' W 123°19'714.0
2018-Jan-12 04:00N 49°05' W 123°20'713.3
2018-Jan-12 03:29N 48°60' W 123°13'613.2
2018-Jan-12 03:00N 48°55' W 123°06'612.9
2018-Jan-12 02:30N 48°50' W 122°60'510.5
2018-Jan-12 02:00N 48°45' W 123°04'510.9
2018-Jan-12 01:30N 48°43' W 123°11'5 9.1
2018-Jan-12 01:00N 48°39' W 123°14'611.5
2018-Jan-12 00:30N 48°33' W 123°12'612.1
2018-Jan-12 00:00N 48°27' W 123°10'510.7
2018-Jan-11 23:30N 48°23' W 123°15'510.6
2018-Jan-11 23:01N 48°22' W 123°23'5 8.9
2018-Jan-11 22:30N 48°18' W 123°25'5 8.4
2018-Jan-11 21:56N 48°14' W 123°29'510.4
2018-Jan-11 21:29N 48°13' W 123°36'710.9
2018-Jan-11 20:50N 48°13' W 123°47'511.3
2018-Jan-11 20:24N 48°14' W 123°54'511.6
2018-Jan-11 20:00N 48°15' W 124°01'611.6
2018-Jan-11 19:30N 48°18' W 124°09'611.2
2018-Jan-11 19:00N 48°20' W 124°16'611.7
2018-Jan-11 18:30N 48°22' W 124°24'510.2
2018-Jan-11 18:00N 48°24' W 124°31'612.7
2018-Jan-11 17:30N 48°27' W 124°40'612.3
2018-Jan-11 17:00N 48°29' W 124°49'713.1
2018-Jan-11 16:30N 48°29' W 124°59'612.6
2018-Jan-11 16:00N 48°29' W 125°09'612.1
2018-Jan-11 15:30N 48°29' W 125°18'612.4
2018-Jan-11 14:59N 48°29' W 125°27'613.3
2018-Jan-11 14:30N 48°30' W 125°37'713.5
2018-Jan-11 14:00N 48°30' W 125°47'713.6
2018-Jan-11 13:31N 48°30' W 125°57'713.7
2018-Jan-11 13:00N 48°30' W 126°08'713.5
2018-Jan-11 12:30N 48°31' W 126°18'  
Track history (hours):
 
Tides and Currents Weather Stations Pressure Air Temp Water Temp Dewpoint Dewpoint Depression Visibility Wind Speed Wind Dir Waves Ship Positions

Emerald

Last reported at 2018-Jan-20 12:36 UTC. Time now 2018-Jan-21 16:19 UTC.
Position N 48°13' W 125°22'.

Length 190 m; draft 12.3 m.

Type: Cargo ship. MMSI: 538003569.

Date/timePositionNaut miles runAvg speedWind from/ knotsBaromVisibWave heightAir tempDewpointWater temp
2018-Jan-20 12:36N 48°13' W 125°22'3 7.8
2018-Jan-20 12:16N 48°15' W 125°19'2 7.4
2018-Jan-20 11:57N 48°17' W 125°17'3 7.1
2018-Jan-20 11:29N 48°20' W 125°14'4 6.7
2018-Jan-20 10:57N 48°22' W 125°11'3 7.3
2018-Jan-20 10:30N 48°25' W 125°08'4 7.4
2018-Jan-20 09:59N 48°28' W 125°04'4 7.6
2018-Jan-20 09:30N 48°31' W 125°01'3 6.9
2018-Jan-20 09:01N 48°31' W 124°55'4 7.3
2018-Jan-20 08:30N 48°31' W 124°50'4 7.5
2018-Jan-20 08:01N 48°30' W 124°44'4 7.8
2018-Jan-20 07:31N 48°29' W 124°39'4 8.3
2018-Jan-20 07:01N 48°28' W 124°33'5 9.6
2018-Jan-20 06:30N 48°26' W 124°26'510.4
2018-Jan-20 05:59N 48°24' W 124°19'612.2
2018-Jan-20 05:31N 48°21' W 124°11'713.8
2018-Jan-20 05:01N 48°19' W 124°01'713.2
2018-Jan-20 04:30N 48°17' W 123°51'712.9
2018-Jan-20 03:58N 48°16' W 123°41'1311.3
2018-Jan-20 02:49N 48°23' W 123°24'3 9.5
2018-Jan-20 02:30N 48°23' W 123°20'611.2
2018-Jan-20 02:00N 48°26' W 123°12'612.9
2018-Jan-20 01:30N 48°32' W 123°13'612.7
2018-Jan-20 01:00N 48°38' W 123°15'612.0
2018-Jan-20 00:30N 48°44' W 123°18'9 0.7
2018-Jan-19 10:51N 48°43' W 123°32'0 0.0
2018-Jan-19 10:24N 48°43' W 123°32'0 0.0
2018-Jan-19 09:57N 48°43' W 123°32'4 0.1
2018-Jan-18 00:03N 48°43' W 123°26'110.0
2018-Jan-17 23:59N 48°44' W 123°25'010.6
2018-Jan-17 23:57N 48°44' W 123°24'  
2018-Jan-12 14:58N 49°18' W 123°05'0 0.0
2018-Jan-12 14:28N 49°18' W 123°05'0 0.1
2018-Jan-12 13:58N 49°18' W 123°05'0 0.1
2018-Jan-12 13:28N 49°18' W 123°05'0 0.2
2018-Jan-12 12:58N 49°18' W 123°05'0 0.0
2018-Jan-12 12:28N 49°18' W 123°05'0 0.0
2018-Jan-12 11:58N 49°18' W 123°05'0 0.0
2018-Jan-12 11:28N 49°18' W 123°05'0 0.1
2018-Jan-12 10:58N 49°18' W 123°05'0 0.0
2018-Jan-12 10:28N 49°18' W 123°05'0 0.0
2018-Jan-12 09:58N 49°18' W 123°05'0 0.1
2018-Jan-12 09:28N 49°18' W 123°05'0 0.1
2018-Jan-12 08:58N 49°18' W 123°05'0 0.1
2018-Jan-12 08:28N 49°18' W 123°05'0 0.1
2018-Jan-12 07:58N 49°18' W 123°05'0 0.0
2018-Jan-12 07:28N 49°18' W 123°05'0 0.1
2018-Jan-12 06:58N 49°18' W 123°05'0 0.2
2018-Jan-12 06:28N 49°18' W 123°05'0 0.2
2018-Jan-12 05:59N 49°18' W 123°05'2 3.3
2018-Jan-12 05:31N 49°18' W 123°07'611.4
2018-Jan-12 05:00N 49°18' W 123°16'713.8
2018-Jan-12 04:29N 49°11' W 123°19'714.0
2018-Jan-12 04:00N 49°05' W 123°20'713.3
2018-Jan-12 03:29N 48°60' W 123°13'613.2
2018-Jan-12 03:00N 48°55' W 123°06'612.9
2018-Jan-12 02:30N 48°50' W 122°60'510.5
2018-Jan-12 02:00N 48°45' W 123°04'510.9
2018-Jan-12 01:30N 48°43' W 123°11'5 9.1
2018-Jan-12 01:00N 48°39' W 123°14'611.5
2018-Jan-12 00:30N 48°33' W 123°12'612.1
2018-Jan-12 00:00N 48°27' W 123°10'510.7
2018-Jan-11 23:30N 48°23' W 123°15'510.6
2018-Jan-11 23:01N 48°22' W 123°23'5 8.9
2018-Jan-11 22:30N 48°18' W 123°25'5 8.4
2018-Jan-11 21:56N 48°14' W 123°29'510.4
2018-Jan-11 21:29N 48°13' W 123°36'710.9
2018-Jan-11 20:50N 48°13' W 123°47'511.3
2018-Jan-11 20:24N 48°14' W 123°54'511.6
2018-Jan-11 20:00N 48°15' W 124°01'611.6
2018-Jan-11 19:30N 48°18' W 124°09'611.2
2018-Jan-11 19:00N 48°20' W 124°16'611.7
2018-Jan-11 18:30N 48°22' W 124°24'510.2
2018-Jan-11 18:00N 48°24' W 124°31'612.7
2018-Jan-11 17:30N 48°27' W 124°40'612.3
2018-Jan-11 17:00N 48°29' W 124°49'713.1
2018-Jan-11 16:30N 48°29' W 124°59'612.6
2018-Jan-11 16:00N 48°29' W 125°09'612.1
2018-Jan-11 15:30N 48°29' W 125°18'612.4
2018-Jan-11 14:59N 48°29' W 125°27'613.3
2018-Jan-11 14:30N 48°30' W 125°37'713.5
2018-Jan-11 14:00N 48°30' W 125°47'713.6
2018-Jan-11 13:31N 48°30' W 125°57'713.7
2018-Jan-11 13:00N 48°30' W 126°08'713.5
2018-Jan-11 12:30N 48°31' W 126°18'  

Dump ship's entire track history